Terminal Aerodrome Forecast
Issued by NWS

Home | Current Version | Previous Version | Graphics & Text | Print | Product List | Glossary On
Versions: 1 2 3 4 5 6 7 8 9 10 11 12 13 14 15
309
FTUS43 KMPX 140520
TAFAXN
TAF
KAXN 140520Z 1406/1506 15015KT P6SM -SN OVC035
     FM140730 14016G21KT 3SM -SN OVC020
      TEMPO 1409/1413 1 1/2SM -SN OVC015
     FM141400 14015G20KT 3SM -SN OVC010
     FM142300 16008KT P6SM OVC009=

USA.gov is the U.S. government's official web portal to all federal, state and local government web resources and services.